Time;durP1;ratioP1;P1;durP2;ratioP2;P2;SDS_P1;SDS_P2;PMS_P1;PMS_P2;Temp;Humidity;BMP_temperature;BMP_pressure;BME280_temperature;BME280_humidity;BME280_pressure;Samples;Min_cycle;Max_cycle;Signal;HPM_P1;HPM_P2
2021/10/16 00:01:28;;;;;;;11.48;5.07;;;;;;;15.32;45.75;101266.19;4416289;32;20285;-68
2021/10/16 00:03:54;;;;;;;19.02;5.60;;;;;;;15.58;45.60;101264.88;4424390;32;20087;-68
2021/10/16 00:06:20;;;;;;;16.70;6.15;;;;;;;15.55;45.56;101267.81;4424676;32;20717;-68
2021/10/16 00:08:46;;;;;;;19.40;6.75;;;;;;;15.58;45.48;101264.88;4421696;32;20101;-68
2021/10/16 00:11:13;;;;;;;18.30;6.47;;;;;;;15.54;45.64;101269.88;4421870;32;20141;-68
2021/10/16 00:13:40;;;;;;;23.20;6.62;;;;;;;15.45;46.18;101266.97;4422674;32;20486;-68
2021/10/16 00:16:05;;;;;;;16.98;7.25;;;;;;;15.34;46.35;101260.06;4422984;32;20097;-68
2021/10/16 00:18:32;;;;;;;18.40;7.30;;;;;;;15.17;46.53;101262.25;4425051;32;20459;-68
2021/10/16 00:20:59;;;;;;;19.35;7.50;;;;;;;15.14;46.80;101265.22;4423600;32;20375;-68
2021/10/16 00:23:25;;;;;;;17.50;6.75;;;;;;;15.19;46.87;101271.09;4426564;32;20315;-68
2021/10/16 00:25:51;;;;;;;19.40;6.90;;;;;;;15.15;46.83;101267.59;4422343;32;20107;-68
2021/10/16 00:28:16;;;;;;;20.80;7.07;;;;;;;14.99;47.35;101266.94;4424586;32;20095;-68
2021/10/16 00:30:42;;;;;;;16.17;5.43;;;;;;;15.06;47.07;101266.69;4423777;32;20093;-68
2021/10/16 00:33:09;;;;;;;13.65;5.45;;;;;;;15.14;47.09;101268.03;4423922;32;20105;-68
2021/10/16 00:35:35;;;;;;;18.00;5.25;;;;;;;15.30;46.52;101268.69;4422847;32;20439;-68
2021/10/16 00:38:01;;;;;;;15.77;6.12;;;;;;;15.42;46.10;101262.22;4419712;32;20077;-68
2021/10/16 00:40:27;;;;;;;15.13;4.85;;;;;;;15.45;45.90;101258.47;4422325;32;20416;-68
2021/10/16 00:42:55;;;;;;;17.20;4.70;;;;;;;15.59;45.50;101262.84;4426340;32;20056;-68
2021/10/16 00:45:23;;;;;;;13.88;5.28;;;;;;;15.94;45.33;101258.69;4423777;32;20131;-68
2021/10/16 00:47:50;;;;;;;16.10;5.10;;;;;;;16.01;44.90;101258.41;4426104;32;20363;-68
2021/10/16 00:50:18;;;;;;;14.45;4.72;;;;;;;15.85;44.95;101253.72;4422159;32;20105;-68
2021/10/16 00:52:45;;;;;;;18.25;5.10;;;;;;;16.02;44.89;101253.53;4426502;32;20112;-68
2021/10/16 00:55:13;;;;;;;20.33;5.78;;;;;;;15.96;44.90;101242.75;4424831;32;20396;-68
2021/10/16 00:57:39;;;;;;;14.25;4.87;;;;;;;16.23;44.68;101253.47;4420664;32;20112;-68
2021/10/16 01:00:08;;;;;;;17.20;5.12;;;;;;;16.07;44.60;101245.19;4423263;32;20046;-68
2021/10/16 01:02:34;;;;;;;15.88;5.32;;;;;;;16.38;44.33;101242.38;4423694;32;20073;-68
2021/10/16 01:05:00;;;;;;;18.67;5.00;;;;;;;16.24;44.61;101240.87;4423246;32;20538;-68
2021/10/16 01:07:28;;;;;;;21.67;5.65;;;;;;;16.40;44.08;101240.63;4422117;32;20072;-68
2021/10/16 01:09:54;;;;;;;15.20;5.55;;;;;;;16.50;44.11;101236.59;4421566;32;20037;-68
2021/10/16 01:12:20;;;;;;;19.55;5.80;;;;;;;16.51;44.12;101228.88;4422973;32;20146;-68
2021/10/16 01:14:54;;;;;;;19.80;6.43;;;;;;;16.59;43.83;101225.28;4422739;32;20081;-68
2021/10/16 01:17:20;;;;;;;16.52;6.57;;;;;;;16.92;43.12;101217.00;4421743;32;20103;-68
2021/10/16 01:19:54;;;;;;;14.87;5.65;;;;;;;16.69;43.54;101217.56;4421694;32;20077;-68
2021/10/16 01:22:20;;;;;;;21.50;5.87;;;;;;;16.83;43.37;101211.28;4423306;32;20037;-68
2021/10/16 01:24:46;;;;;;;13.70;5.20;;;;;;;16.61;43.58;101213.44;4422726;32;20164;-68
2021/10/16 01:27:12;;;;;;;34.40;9.18;;;;;;;16.62;43.87;101210.13;4422084;32;20126;-68
2021/10/16 01:29:39;;;;;;;18.02;5.78;;;;;;;16.63;43.99;101208.84;4420636;32;20435;-67
2021/10/16 01:32:05;;;;;;;18.25;5.60;;;;;;;16.90;43.61;101202.44;4422534;32;20060;-67
2021/10/16 01:34:31;;;;;;;18.33;6.07;;;;;;;16.98;43.35;101203.75;4420933;32;20061;-67
2021/10/16 01:36:57;;;;;;;20.90;5.37;;;;;;;16.94;43.06;101208.78;4424455;32;20049;-67
2021/10/16 01:39:23;;;;;;;19.50;5.43;;;;;;;16.92;43.16;101208.47;4415029;32;20234;-67
2021/10/16 01:41:50;;;;;;;18.92;5.55;;;;;;;16.93;43.29;101207.19;4424717;32;20138;-68
2021/10/16 01:44:16;;;;;;;15.23;4.40;;;;;;;16.83;43.39;101197.88;4420683;32;20706;-68
2021/10/16 01:46:43;;;;;;;15.70;4.75;;;;;;;16.65;43.73;101208.38;4421210;32;20089;-68
2021/10/16 01:49:11;;;;;;;18.17;5.28;;;;;;;16.73;43.77;101196.28;4418172;32;20042;-67
2021/10/16 01:51:38;;;;;;;19.25;4.93;;;;;;;16.57;44.15;101199.37;4421979;32;20114;-68
2021/10/16 01:54:05;;;;;;;18.02;5.00;;;;;;;16.39;44.64;101190.78;4423756;32;20037;-68
2021/10/16 01:56:32;;;;;;;13.95;4.78;;;;;;;16.50;44.45;101190.38;4418568;32;20042;-67
2021/10/16 01:59:17;;;;;;;18.02;5.50;;;;;;;16.31;44.67;101183.78;4417293;32;20084;-67
2021/10/16 02:01:43;;;;;;;22.23;5.50;;;;;;;16.41;44.79;101184.62;4426186;32;20037;-68
2021/10/16 02:04:10;;;;;;;22.95;5.45;;;;;;;16.16;45.42;101167.78;4426924;32;20168;-68
2021/10/16 02:06:36;;;;;;;18.70;6.00;;;;;;;16.10;45.54;101167.59;4427129;32;20056;-68
2021/10/16 02:09:03;;;;;;;15.68;5.60;;;;;;;16.00;45.80;101168.81;4417513;32;20085;-68
2021/10/16 02:11:29;;;;;;;18.35;5.37;;;;;;;16.01;46.01;101173.22;4424079;32;20046;-69
2021/10/16 02:13:54;;;;;;;17.67;5.20;;;;;;;15.70;46.39;101166.75;4427725;32;20415;-68
2021/10/16 02:16:20;;;;;;;13.88;5.00;;;;;;;15.64;46.44;101155.22;4426245;32;20603;-68
2021/10/16 02:18:46;;;;;;;17.25;4.87;;;;;;;15.54;46.58;101156.41;4422366;32;20077;-68
2021/10/16 02:21:12;;;;;;;16.55;5.05;;;;;;;15.50;46.62;101158.56;4417592;32;20423;-68
2021/10/16 02:23:37;;;;;;;15.32;4.30;;;;;;;15.41;46.69;101141.50;4425191;32;21189;-68
2021/10/16 02:26:03;;;;;;;14.43;4.53;;;;;;;15.23;47.04;101140.56;4426424;32;20060;-68
2021/10/16 02:28:28;;;;;;;21.98;4.90;;;;;;;15.20;47.01;101132.97;4421407;32;20049;-69
2021/10/16 02:30:54;;;;;;;15.73;4.62;;;;;;;15.06;47.22;101127.78;4425201;32;20054;-68
2021/10/16 02:33:20;;;;;;;19.00;5.30;;;;;;;14.95;47.67;101131.03;4425717;32;20080;-68
2021/10/16 02:35:45;;;;;;;18.08;4.75;;;;;;;14.94;47.74;101123.00;4424536;32;20074;-68
2021/10/16 02:38:11;;;;;;;15.30;4.60;;;;;;;14.81;48.07;101136.41;4418775;32;20053;-68
2021/10/16 02:40:37;;;;;;;15.65;4.18;;;;;;;14.75;48.17;101149.56;4423875;32;20077;-68
2021/10/16 02:43:04;;;;;;;17.52;5.43;;;;;;;14.77;47.95;101145.03;4425538;32;20055;-68
2021/10/16 02:45:31;;;;;;;16.17;5.30;;;;;;;14.65;48.16;101148.69;4425086;32;20042;-68
2021/10/16 02:47:56;;;;;;;14.35;5.22;;;;;;;14.63;48.23;101139.06;4423782;32;20139;-69
2021/10/16 02:50:23;;;;;;;14.80;4.90;;;;;;;14.55;48.01;101137.72;4421986;32;20098;-68
2021/10/16 02:52:48;;;;;;;17.12;4.70;;;;;;;14.46;48.38;101137.63;4424623;32;20041;-68
2021/10/16 02:55:16;;;;;;;13.75;5.28;;;;;;;14.43;48.43;101141.38;4425012;32;20129;-68
2021/10/16 02:57:43;;;;;;;13.38;4.60;;;;;;;14.41;48.29;101141.81;4427058;32;20033;-68
2021/10/16 03:00:09;;;;;;;10.40;4.28;;;;;;;14.41;48.51;101136.16;4426779;32;20055;-68
2021/10/16 03:02:35;;;;;;;17.77;5.22;;;;;;;14.34;48.69;101138.44;4425995;32;20107;-68
2021/10/16 03:05:01;;;;;;;11.55;4.30;;;;;;;14.13;49.01;101133.44;4426622;32;20428;-68
2021/10/16 03:07:28;;;;;;;19.15;5.65;;;;;;;14.15;49.11;101133.78;4426656;32;20073;-68
2021/10/16 03:09:54;;;;;;;14.13;5.05;;;;;;;14.05;49.06;101127.19;4423817;32;20056;-68
2021/10/16 03:12:20;;;;;;;16.23;5.40;;;;;;;13.83;49.45;101129.91;4427294;32;20432;-68
2021/10/16 03:14:45;;;;;;;20.60;5.30;;;;;;;13.89;49.23;101130.94;4428776;32;20064;-68
2021/10/16 03:17:11;;;;;;;19.42;6.45;;;;;;;13.95;49.17;101131.16;4429090;32;20077;-68
2021/10/16 03:19:37;;;;;;;10.20;4.90;;;;;;;14.00;48.96;101122.91;4426245;32;20165;-68
2021/10/16 03:22:03;;;;;;;24.33;6.10;;;;;;;14.03;48.90;101116.34;4425777;32;20038;-68
2021/10/16 03:24:28;;;;;;;17.10;5.32;;;;;;;14.00;48.90;101116.47;4425323;32;20208;-69
2021/10/16 03:26:54;;;;;;;15.90;4.87;;;;;;;13.99;49.06;101118.50;4426257;32;20108;-68
2021/10/16 03:29:20;;;;;;;16.15;5.55;;;;;;;13.88;49.05;101115.22;4427728;32;20073;-68
2021/10/16 03:31:45;;;;;;;15.30;5.68;;;;;;;13.89;49.18;101125.28;4427733;32;20048;-68
2021/10/16 03:34:12;;;;;;;19.15;5.40;;;;;;;13.83;49.20;101112.94;4428234;32;20327;-68
2021/10/16 03:36:38;;;;;;;12.75;4.65;;;;;;;13.78;49.09;101107.06;4426548;32;20382;-68
2021/10/16 03:39:05;;;;;;;19.60;4.72;;;;;;;13.80;49.49;101107.38;4426174;32;20134;-68
2021/10/16 03:41:31;;;;;;;16.33;4.68;;;;;;;13.75;49.62;101102.31;4425932;32;20049;-68
2021/10/16 03:43:58;;;;;;;22.20;4.37;;;;;;;13.59;49.73;101103.19;4427952;32;20050;-68
2021/10/16 03:46:24;;;;;;;14.85;3.97;;;;;;;13.70;49.36;101105.69;4426012;32;20398;-68
2021/10/16 03:48:49;;;;;;;15.07;4.15;;;;;;;13.67;49.08;101109.41;4429537;32;20050;-68
2021/10/16 03:51:15;;;;;;;11.73;3.67;;;;;;;13.67;49.08;101101.75;4428262;32;20140;-68
2021/10/16 03:53:41;;;;;;;16.15;4.32;;;;;;;13.73;49.08;101108.41;4423066;32;20117;-69
2021/10/16 03:56:06;;;;;;;16.12;4.47;;;;;;;13.60;49.33;101104.75;4424359;32;20072;-68
2021/10/16 03:58:32;;;;;;;15.15;3.67;;;;;;;13.72;48.73;101106.06;4425856;32;20026;-68
2021/10/16 04:01:01;;;;;;;17.27;3.85;;;;;;;13.83;48.34;101098.00;4427492;32;20427;-68
2021/10/16 04:03:27;;;;;;;21.92;4.10;;;;;;;13.66;49.06;101096.53;4427910;32;20069;-68
2021/10/16 04:05:54;;;;;;;13.75;4.03;;;;;;;13.66;48.97;101088.06;4425758;32;20077;-68
2021/10/16 04:08:19;;;;;;;16.83;4.60;;;;;;;13.73;48.76;101082.97;4426564;32;20093;-68
2021/10/16 04:10:45;;;;;;;15.07;4.45;;;;;;;13.87;48.49;101084.56;4424550;32;20056;-68
2021/10/16 04:13:11;;;;;;;13.68;4.78;;;;;;;13.92;48.49;101090.44;4422855;32;20455;-68
2021/10/16 04:15:38;;;;;;;25.80;5.10;;;;;;;13.88;48.32;101081.28;4425792;32;20045;-68
2021/10/16 04:18:05;;;;;;;21.58;5.57;;;;;;;13.97;48.48;101080.59;4427805;32;20409;-68
2021/10/16 04:20:31;;;;;;;15.40;4.68;;;;;;;13.77;48.99;101082.84;4423476;32;20077;-68
2021/10/16 04:22:58;;;;;;;19.25;4.62;;;;;;;13.86;48.65;101082.94;4426437;32;20034;-68
2021/10/16 04:25:24;;;;;;;24.17;5.03;;;;;;;13.68;48.85;101077.87;4424702;32;20104;-68
2021/10/16 04:27:50;;;;;;;19.73;5.07;;;;;;;13.64;49.09;101077.19;4426615;32;20046;-68
2021/10/16 04:30:16;;;;;;;28.25;6.45;;;;;;;13.77;48.97;101075.16;4427231;32;20041;-68
2021/10/16 04:32:41;;;;;;;19.15;5.12;;;;;;;13.74;48.79;101080.91;4424939;32;20282;-68
2021/10/16 04:35:08;;;;;;;17.77;5.32;;;;;;;13.73;48.90;101076.50;4428024;32;20068;-68
2021/10/16 04:37:34;;;;;;;14.98;5.22;;;;;;;13.82;48.73;101082.28;4419995;32;20073;-68
2021/10/16 04:40:12;;;;;;;20.42;5.37;;;;;;;13.84;48.55;101085.47;4424998;32;20150;-68
2021/10/16 04:42:40;;;;;;;18.10;6.25;;;;;;;13.75;48.80;101076.88;4426335;32;20033;-68
2021/10/16 04:45:07;;;;;;;17.65;6.28;;;;;;;13.71;48.77;101079.78;4426733;32;20422;-68
2021/10/16 04:47:33;;;;;;;23.85;5.80;;;;;;;13.50;49.49;101077.63;4424410;32;20371;-68
2021/10/16 04:49:59;;;;;;;15.95;5.80;;;;;;;13.52;49.13;101077.97;4427623;32;20077;-68
2021/10/16 04:52:25;;;;;;;23.70;6.87;;;;;;;13.43;49.35;101077.03;4425743;32;20030;-68
2021/10/16 04:54:50;;;;;;;14.60;6.03;;;;;;;13.31;49.81;101081.44;4426273;32;20398;-68
2021/10/16 04:57:16;;;;;;;23.50;7.03;;;;;;;13.38;49.59;101078.38;4424775;32;20554;-68
2021/10/16 04:59:42;;;;;;;16.52;6.37;;;;;;;13.55;49.17;101077.06;4424526;32;20050;-68
2021/10/16 05:02:08;;;;;;;18.52;6.65;;;;;;;13.58;49.10;101078.19;4424663;32;20034;-68
2021/10/16 05:04:33;;;;;;;23.67;7.07;;;;;;;13.57;49.15;101071.72;4428406;32;20071;-68
2021/10/16 05:06:59;;;;;;;17.50;6.68;;;;;;;13.74;48.91;101070.41;4418894;32;20038;-68
2021/10/16 05:09:25;;;;;;;18.58;6.93;;;;;;;13.81;48.77;101075.06;4425430;32;20406;-68
2021/10/16 05:11:51;;;;;;;18.67;6.15;;;;;;;14.01;48.70;101079.22;4424747;32;20096;-68
2021/10/16 05:14:17;;;;;;;18.60;6.70;;;;;;;14.23;48.19;101070.03;4424089;32;20061;-68
2021/10/16 05:16:43;;;;;;;18.23;6.40;;;;;;;14.31;47.99;101072.19;4423984;32;20073;-68
2021/10/16 05:19:09;;;;;;;22.42;6.65;;;;;;;14.48;47.41;101075.66;4426447;32;20399;-68
2021/10/16 05:21:34;;;;;;;14.57;5.97;;;;;;;14.63;47.08;101073.94;4429805;32;20046;-68
2021/10/16 05:24:00;;;;;;;19.02;6.60;;;;;;;14.84;46.57;101065.44;4426341;32;20056;-68
2021/10/16 05:26:26;;;;;;;15.20;6.65;;;;;;;15.02;46.34;101073.28;4425451;32;20089;-68
2021/10/16 05:28:55;;;;;;;16.83;6.40;;;;;;;15.11;46.23;101071.31;4423936;32;20030;-68
2021/10/16 05:31:22;;;;;;;23.10;6.45;;;;;;;15.19;46.05;101072.62;4424607;32;20124;-68
2021/10/16 05:33:49;;;;;;;23.70;6.78;;;;;;;15.08;45.87;101065.78;4422798;32;20086;-68
2021/10/16 05:36:14;;;;;;;19.90;6.97;;;;;;;15.23;45.65;101073.31;4426871;32;20065;-68
2021/10/16 05:38:40;;;;;;;15.90;7.07;;;;;;;15.05;46.00;101072.38;4422622;32;20089;-68
2021/10/16 05:41:06;;;;;;;22.80;8.18;;;;;;;15.08;45.94;101062.94;4426889;32;20085;-68
2021/10/16 05:43:31;;;;;;;19.48;7.35;;;;;;;15.07;45.92;101059.31;4425454;32;20034;-68
2021/10/16 05:45:59;;;;;;;17.27;7.28;;;;;;;15.12;45.93;101070.06;4426677;32;20198;-68
2021/10/16 05:48:25;;;;;;;17.98;7.03;;;;;;;15.22;45.60;101068.09;4422106;32;20491;-68
2021/10/16 05:50:50;;;;;;;18.48;7.47;;;;;;;15.25;45.41;101067.16;4424275;32;20034;-68
2021/10/16 05:53:16;;;;;;;16.95;7.20;;;;;;;15.35;45.38;101063.13;4428846;32;20457;-68
2021/10/16 05:55:42;;;;;;;23.33;7.40;;;;;;;15.35;45.36;101080.16;4425325;32;20021;-68
2021/10/16 05:58:07;;;;;;;18.05;7.70;;;;;;;15.38;45.22;101077.22;4427455;32;20163;-68
2021/10/16 06:00:33;;;;;;;19.08;7.30;;;;;;;15.16;45.56;101072.78;4424758;32;20034;-68
2021/10/16 06:02:59;;;;;;;16.98;8.38;;;;;;;15.15;45.75;101076.84;4422450;32;20056;-68
2021/10/16 06:05:25;;;;;;;16.17;7.43;;;;;;;15.13;45.65;101068.03;4423804;32;20080;-68
2021/10/16 06:07:51;;;;;;;18.42;7.87;;;;;;;15.20;45.66;101067.75;4420467;32;20026;-68
2021/10/16 06:10:20;;;;;;;19.58;7.30;;;;;;;15.23;45.67;101072.50;4426274;32;20434;-68
2021/10/16 06:12:45;;;;;;;17.00;7.68;;;;;;;15.14;45.43;101070.41;4425093;32;20065;-68
2021/10/16 06:15:11;;;;;;;18.92;8.00;;;;;;;15.28;45.49;101071.91;4424006;32;20432;-68
2021/10/16 06:17:36;;;;;;;16.77;7.65;;;;;;;15.30;45.51;101075.88;4425584;32;20148;-68
2021/10/16 06:20:03;;;;;;;19.50;8.18;;;;;;;15.27;45.48;101068.28;4424745;32;20034;-68
2021/10/16 06:22:29;;;;;;;18.40;7.43;;;;;;;15.48;45.24;101078.84;4423315;32;20063;-68
2021/10/16 06:24:54;;;;;;;18.12;7.35;;;;;;;15.30;44.76;101077.91;4425675;32;20046;-68
2021/10/16 06:27:20;;;;;;;15.95;7.68;;;;;;;15.42;45.10;101071.37;4427055;32;20038;-68
2021/10/16 06:29:47;;;;;;;19.67;7.93;;;;;;;15.45;45.06;101061.94;4428300;32;20057;-68
2021/10/16 06:32:13;;;;;;;20.52;8.15;;;;;;;15.33;45.13;101072.09;4428154;32;20216;-68
2021/10/16 06:34:39;;;;;;;20.65;8.57;;;;;;;15.58;44.85;101071.97;4426903;32;20447;-68
2021/10/16 06:37:05;;;;;;;16.70;8.30;;;;;;;15.54;44.60;101065.62;4428924;32;20090;-68
2021/10/16 06:39:31;;;;;;;22.13;8.95;;;;;;;15.63;44.79;101057.19;4429070;32;20038;-68
2021/10/16 06:41:56;;;;;;;24.98;9.93;;;;;;;15.69;45.05;101069.50;4430619;32;20076;-68
2021/10/16 06:44:22;;;;;;;24.08;9.50;;;;;;;15.79;44.77;101068.28;4427943;32;20069;-68
2021/10/16 06:46:48;;;;;;;17.50;8.15;;;;;;;15.86;44.98;101070.81;4425525;32;20090;-68
2021/10/16 06:49:13;;;;;;;15.73;7.75;;;;;;;15.99;44.69;101062.97;4427276;32;20060;-68
2021/10/16 06:51:39;;;;;;;26.35;8.20;;;;;;;15.94;44.85;101066.44;4427758;32;20074;-68
2021/10/16 06:54:06;;;;;;;15.65;7.80;;;;;;;15.97;44.78;101064.72;4428897;32;20029;-68
2021/10/16 06:56:32;;;;;;;24.00;9.00;;;;;;;16.17;44.48;101078.50;4422831;32;20118;-68
2021/10/16 06:58:57;;;;;;;15.57;7.75;;;;;;;15.58;45.37;101086.12;4427147;32;20474;-68
2021/10/16 07:01:23;;;;;;;22.25;8.40;;;;;;;15.78;45.75;101095.06;4427083;32;20041;-68
2021/10/16 07:03:49;;;;;;;19.90;8.63;;;;;;;15.93;44.86;101093.22;4426562;32;20457;-68
2021/10/16 07:06:16;;;;;;;22.62;8.15;;;;;;;16.18;44.81;101099.94;4427983;32;20041;-68
2021/10/16 07:08:42;;;;;;;22.15;8.80;;;;;;;16.17;44.91;101092.72;4425525;32;20099;-68
2021/10/16 07:11:08;;;;;;;22.30;8.95;;;;;;;16.36;44.44;101089.44;4428039;32;20144;-68
2021/10/16 07:13:34;;;;;;;17.58;8.88;;;;;;;16.54;44.16;101075.28;4428128;32;20037;-68
2021/10/16 07:16:00;;;;;;;25.83;8.50;;;;;;;16.16;45.04;101086.22;4420969;32;20056;-68
2021/10/16 07:18:26;;;;;;;20.12;9.00;;;;;;;16.38;44.27;101106.03;4426572;32;20073;-68
2021/10/16 07:20:52;;;;;;;20.52;9.45;;;;;;;16.62;44.22;101095.66;4427809;32;20040;-68
2021/10/16 07:23:21;;;;;;;21.02;8.55;;;;;;;16.68;44.13;101100.25;4422682;32;20081;-68
2021/10/16 07:25:47;;;;;;;17.23;9.30;;;;;;;16.77;44.18;101096.62;4429489;32;20635;-68
2021/10/16 07:28:12;;;;;;;22.75;9.27;;;;;;;17.04;43.71;101100.28;4429181;32;20117;-68
2021/10/16 07:30:38;;;;;;;23.60;9.75;;;;;;;17.17;43.47;101111.47;4424849;32;20421;-68
2021/10/16 07:33:04;;;;;;;19.62;9.60;;;;;;;17.36;43.00;101113.84;4427996;32;20066;-68
2021/10/16 07:35:29;;;;;;;26.20;10.13;;;;;;;17.57;42.63;101118.56;4427489;32;20034;-68
2021/10/16 07:37:55;;;;;;;20.73;9.48;;;;;;;17.63;42.57;101127.25;4420146;32;20033;-68
2021/10/16 07:40:21;;;;;;;17.87;8.88;;;;;;;17.79;42.16;101124.84;4427720;32;20267;-68
2021/10/16 07:42:47;;;;;;;22.40;9.10;;;;;;;18.02;41.80;101122.53;4425822;32;20105;-69
2021/10/16 07:45:13;;;;;;;21.23;10.27;;;;;;;18.18;41.60;101127.84;4426786;32;20142;-68
2021/10/16 07:47:39;;;;;;;18.15;9.35;;;;;;;18.23;41.41;101124.34;4425608;32;20121;-68
2021/10/16 07:50:05;;;;;;;18.33;9.73;;;;;;;18.56;40.89;101130.88;4424591;32;20046;-68
2021/10/16 07:52:32;;;;;;;17.40;8.88;;;;;;;18.44;40.65;101134.72;4427566;32;20049;-68
2021/10/16 07:54:58;;;;;;;15.77;8.27;;;;;;;18.58;40.54;101128.28;4427045;32;20522;-68
2021/10/16 07:57:23;;;;;;;17.75;8.60;;;;;;;18.63;40.77;101127.63;4425050;32;20077;-68
2021/10/16 07:59:49;;;;;;;19.10;8.77;;;;;;;18.75;40.45;101130.22;4426047;32;20085;-68
2021/10/16 08:02:14;;;;;;;17.87;8.35;;;;;;;18.93;40.11;101126.50;4427080;32;20094;-68
2021/10/16 08:04:40;;;;;;;18.60;9.18;;;;;;;18.97;40.22;101130.72;4426609;32;20081;-68
2021/10/16 08:07:06;;;;;;;19.30;6.95;;;;;;;19.09;40.11;101135.37;4418718;32;20077;-68
2021/10/16 08:09:32;;;;;;;16.45;8.55;;;;;;;19.22;39.76;101135.91;4420615;32;20038;-68
2021/10/16 08:11:57;;;;;;;18.10;8.30;;;;;;;19.27;39.62;101137.31;4423567;32;20713;-68
2021/10/16 08:14:23;;;;;;;20.33;8.32;;;;;;;19.51;39.58;101141.69;4426500;32;20420;-68
2021/10/16 08:16:49;;;;;;;30.40;14.87;;;;;;;19.50;39.65;101137.25;4424749;32;20305;-68
2021/10/16 08:19:14;;;;;;;22.48;11.27;;;;;;;19.67;39.26;101131.87;4424496;32;20037;-68
2021/10/16 08:21:40;;;;;;;25.55;10.43;;;;;;;19.96;38.41;101134.69;4428737;32;20477;-68
2021/10/16 08:24:07;;;;;;;14.10;8.18;;;;;;;20.04;38.23;101124.44;4424562;32;20085;-68
2021/10/16 08:26:33;;;;;;;18.33;8.30;;;;;;;20.25;38.17;101116.75;4426585;32;20068;-68
2021/10/16 08:28:58;;;;;;;18.37;7.70;;;;;;;20.36;37.55;101117.69;4421187;32;20045;-68
2021/10/16 08:31:25;;;;;;;19.05;6.62;;;;;;;20.64;37.69;101118.87;4428525;32;20021;-68
2021/10/16 08:33:51;;;;;;;14.07;6.30;;;;;;;20.98;37.52;101115.19;4424927;32;20076;-68
2021/10/16 08:36:17;;;;;;;14.25;5.75;;;;;;;21.17;36.36;101119.31;4427759;32;20466;-68
2021/10/16 08:38:43;;;;;;;11.93;4.97;;;;;;;21.52;36.03;101105.66;4421761;32;20029;-68
2021/10/16 08:41:10;;;;;;;15.60;5.37;;;;;;;22.07;35.15;101116.88;4421967;32;20512;-68
2021/10/16 08:43:35;;;;;;;8.57;5.20;;;;;;;22.55;34.22;101116.97;4426512;32;20022;-68
2021/10/16 08:46:02;;;;;;;10.35;4.22;;;;;;;22.61;33.01;101129.25;4425686;32;20072;-69
2021/10/16 08:48:29;;;;;;;7.97;4.10;;;;;;;22.84;32.91;101128.87;4425433;32;20474;-68
2021/10/16 08:50:57;;;;;;;8.88;4.07;;;;;;;23.16;32.86;101127.44;4426586;32;20081;-69
2021/10/16 08:53:23;;;;;;;13.80;4.57;;;;;;;23.41;32.54;101120.75;4421266;32;20184;-68
2021/10/16 08:55:50;;;;;;;9.73;3.60;;;;;;;23.62;31.86;101129.91;4426553;32;20081;-68
2021/10/16 08:58:16;;;;;;;9.43;3.47;;;;;;;23.86;31.06;101129.41;4425297;32;20052;-68
2021/10/16 09:06:11;;;;;;;10.05;3.20;;;;;;;24.77;28.81;101131.22;4000778;31;15018958;-69
2021/10/16 09:19:20;;;;;;;6.50;2.12;;;;;;;23.49;31.06;101135.37;3998577;31;15021601;-70
2021/10/16 09:27:03;;;;;;;6.22;2.28;;;;;;;23.34;31.29;101121.25;3993769;31;15017715;-69
2021/10/16 09:29:32;;;;;;;7.00;2.08;;;;;;;23.34;31.29;101121.25;4458370;32;20080;-69
2021/10/16 09:32:00;;;;;;;7.68;1.75;;;;;;;22.77;31.80;101117.09;4453686;32;20051;-69
2021/10/16 09:34:28;;;;;;;3.08;1.52;;;;;;;22.34;32.08;101104.81;4453966;32;20159;-69
2021/10/16 09:37:13;;;;;;;9.10;1.90;;;;;;;21.90;32.78;101089.38;4456320;32;20069;-69
2021/10/16 09:39:41;;;;;;;6.32;1.77;;;;;;;22.37;32.21;101089.44;4455616;32;20105;-69
2021/10/16 09:42:09;;;;;;;6.85;1.87;;;;;;;22.23;32.61;101089.59;4454166;32;20081;-69
2021/10/16 09:44:38;;;;;;;4.93;1.67;;;;;;;22.09;32.88;101079.84;4453004;32;20474;-69
2021/10/16 09:49:45;;;;;;;5.32;1.83;;;;;;;23.02;31.90;101081.72;3985794;32;15024956;-69
2021/10/16 09:52:14;;;;;;;8.18;2.55;;;;;;;23.02;31.90;101081.72;4438651;32;20028;-69
2021/10/16 09:54:43;;;;;;;7.20;2.50;;;;;;;22.41;32.42;101077.72;4436811;32;20447;-69
2021/10/16 09:57:12;;;;;;;8.35;2.47;;;;;;;22.43;32.58;101064.44;4436264;32;20037;-69
2021/10/16 09:59:39;;;;;;;4.70;2.42;;;;;;;22.38;32.71;101075.88;4438738;32;20308;-69
2021/10/16 10:02:07;;;;;;;4.80;2.40;;;;;;;22.27;32.46;101067.22;4433344;32;20063;-69
2021/10/16 10:07:14;;;;;;;8.57;2.78;;;;;;;22.90;32.43;101080.87;3996660;31;15021683;-69
2021/10/16 10:09:41;;;;;;;7.10;2.80;;;;;;;22.90;32.43;101080.87;4454275;32;20496;-71
2021/10/16 10:12:09;;;;;;;8.25;2.70;;;;;;;22.27;32.85;101072.97;4449431;32;20679;-67
2021/10/16 10:14:39;;;;;;;8.57;3.35;;;;;;;21.74;34.00;101073.59;4448620;32;20073;-68
2021/10/16 10:17:06;;;;;;;10.55;4.00;;;;;;;21.59;34.63;101058.59;4454704;32;20065;-68
2021/10/16 10:19:37;;;;;;;10.75;4.70;;;;;;;21.95;34.36;101075.06;4456104;32;20202;-68
2021/10/16 10:22:11;;;;;;;7.93;3.85;;;;;;;22.12;34.32;101078.84;4452213;32;20067;-68
2021/10/16 10:24:40;;;;;;;8.52;3.80;;;;;;;22.37;34.19;101077.19;4453237;32;20480;-68
2021/10/16 10:27:07;;;;;;;11.88;4.20;;;;;;;22.50;34.15;101077.56;4452194;32;20085;-68
2021/10/16 10:29:36;;;;;;;10.88;4.30;;;;;;;22.91;33.65;101076.72;4452139;32;20068;-68
2021/10/16 10:32:05;;;;;;;7.65;3.95;;;;;;;23.27;33.33;101075.03;4453626;32;20033;-69
2021/10/16 10:34:38;;;;;;;6.87;3.53;;;;;;;23.01;33.72;101080.91;4454769;32;20037;-69
2021/10/16 10:37:07;;;;;;;17.80;3.83;;;;;;;23.46;33.11;101082.62;4453906;32;20072;-69
2021/10/16 10:44:47;;;;;;;7.45;3.50;;;;;;;25.10;31.15;101076.38;3984334;32;15022708;-69
2021/10/16 10:49:58;;;;;;;8.02;3.40;;;;;;;25.57;30.54;101071.37;3982565;32;15022782;-69
2021/10/16 10:52:27;;;;;;;9.38;3.35;;;;;;;25.57;30.54;101071.37;4437910;32;20076;-69
2021/10/16 11:08:48;;;;;;;6.30;2.30;;;;;;;25.03;30.87;101059.66;3984185;32;15023393;-69
2021/10/16 11:11:15;;;;;;;7.00;2.30;;;;;;;25.03;30.87;101059.66;4439053;32;20054;-69
2021/10/16 11:13:40;;;;;;;7.07;2.50;;;;;;;25.07;30.57;101052.28;4441212;32;20069;-69
2021/10/16 11:16:07;;;;;;;6.28;2.42;;;;;;;24.82;31.35;101050.59;4437008;32;20052;-69
2021/10/16 11:18:33;;;;;;;5.37;1.90;;;;;;;25.08;30.56;101039.47;4439494;32;20049;-69
2021/10/16 11:21:05;;;;;;;5.85;2.90;;;;;;;25.17;30.43;101035.50;4438809;32;20041;-68
2021/10/16 11:23:30;;;;;;;6.57;2.20;;;;;;;25.79;29.84;101045.25;4440254;32;20491;-69
2021/10/16 11:28:34;;;;;;;3.08;1.58;;;;;;;24.90;30.75;101036.41;3998521;31;15016359;-69
2021/10/16 11:31:00;;;;;;;3.28;1.58;;;;;;;24.90;30.75;101036.41;4455767;32;20129;-69
2021/10/16 11:33:29;;;;;;;3.50;1.60;;;;;;;23.42;32.60;101041.09;4457899;32;20095;-70
2021/10/16 11:35:57;;;;;;;5.65;1.90;;;;;;;23.42;32.80;101018.12;4457229;32;20036;-70
2021/10/16 11:38:25;;;;;;;3.08;1.50;;;;;;;23.50;32.72;101014.22;4457338;32;20037;-70
2021/10/16 11:40:53;;;;;;;4.65;1.52;;;;;;;23.68;32.66;101020.75;4456710;32;20043;-69
2021/10/16 11:43:22;;;;;;;6.90;1.50;;;;;;;23.74;32.70;101012.91;4439717;32;20346;-69
2021/10/16 11:45:51;;;;;;;2.92;1.30;;;;;;;23.91;32.20;101007.91;4456106;32;20083;-69
2021/10/16 11:48:21;;;;;;;3.37;1.30;;;;;;;23.31;33.23;101012.34;4454980;32;20153;-69
2021/10/16 11:50:50;;;;;;;5.30;1.40;;;;;;;23.55;33.13;101006.91;4440265;32;20102;-69
2021/10/16 11:53:22;;;;;;;2.85;1.20;;;;;;;23.16;33.87;100995.34;4456326;32;20518;-69
2021/10/16 11:58:26;;;;;;;5.03;1.40;;;;;;;23.31;33.93;100992.25;3975140;32;15022458;-69
2021/10/16 12:00:54;;;;;;;2.03;1.20;;;;;;;23.31;33.93;100992.25;4428059;32;20070;-69
2021/10/16 12:03:24;;;;;;;3.25;1.40;;;;;;;22.59;34.74;100988.41;4426048;32;20069;-69
2021/10/16 12:05:53;;;;;;;4.28;0.95;;;;;;;22.57;34.81;100988.12;4426703;32;20064;-69
2021/10/16 12:08:23;;;;;;;3.30;1.37;;;;;;;22.26;35.33;100983.28;4428911;32;20087;-70